createdAt,value
2023-04-15T00:01:40.037Z,60.54
2023-04-15T00:04:07.097Z,61.02
2023-04-15T00:06:34.086Z,60.75
2023-04-15T00:09:01.354Z,60.81
2023-04-15T00:11:28.790Z,60.67
2023-04-15T00:13:55.705Z,60.63
2023-04-15T00:16:22.989Z,60.64
2023-04-15T00:18:49.974Z,61.10
2023-04-15T00:21:17.124Z,60.84
2023-04-15T00:23:44.111Z,60.70
2023-04-15T00:26:11.047Z,60.82
2023-04-15T00:28:38.392Z,60.88
2023-04-15T00:31:05.658Z,60.90
2023-04-15T00:33:32.707Z,61.28
2023-04-15T00:35:59.676Z,61.06
2023-04-15T00:38:26.757Z,60.86
2023-04-15T00:40:55.063Z,61.33
2023-04-15T00:43:22.031Z,61.04
2023-04-15T00:45:49.806Z,61.32
2023-04-15T00:48:17.514Z,61.32
2023-04-15T00:50:44.942Z,61.48
2023-04-15T00:53:12.273Z,61.31
2023-04-15T00:55:39.893Z,61.38
2023-04-15T00:58:07.108Z,61.27
2023-04-15T01:00:34.578Z,61.35
2023-04-15T01:03:01.828Z,61.54
2023-04-15T01:05:30.168Z,61.40
2023-04-15T01:07:57.275Z,61.54
2023-04-15T01:10:24.278Z,61.39
2023-04-15T01:12:51.427Z,61.24
2023-04-15T01:15:18.484Z,61.42
2023-04-15T01:17:46.281Z,61.66
2023-04-15T01:20:13.483Z,61.43
2023-04-15T01:22:41.295Z,61.45
2023-04-15T01:25:17.524Z,61.57
2023-04-15T01:27:44.534Z,61.74
2023-04-15T01:30:12.106Z,61.89
2023-04-15T01:32:39.165Z,61.78
2023-04-15T01:35:24.910Z,61.72
2023-04-15T01:37:52.453Z,61.91
2023-04-15T01:40:19.341Z,62.13
2023-04-15T01:42:47.498Z,62.01
2023-04-15T01:45:17.446Z,61.91
2023-04-15T01:47:45.676Z,61.99
2023-04-15T01:50:13.910Z,62.07
2023-04-15T01:52:42.353Z,62.22
2023-04-15T01:55:11.423Z,61.88
2023-04-15T01:57:40.436Z,61.95
2023-04-15T02:00:09.240Z,62.07
2023-04-15T02:02:44.721Z,62.07
2023-04-15T02:05:13.105Z,62.08
2023-04-15T02:07:42.460Z,62.14
2023-04-15T02:10:13.371Z,62.13
2023-04-15T02:12:41.590Z,62.16
2023-04-15T02:15:10.423Z,61.86
2023-04-15T02:17:38.674Z,61.74
2023-04-15T02:20:08.857Z,61.82
2023-04-15T02:22:37.095Z,62.11
2023-04-15T02:25:06.077Z,61.79
2023-04-15T02:27:35.728Z,61.98
2023-04-15T02:30:04.448Z,61.93
2023-04-15T02:32:37.882Z,62.15
2023-04-15T02:35:07.745Z,61.75
2023-04-15T02:37:40.685Z,61.76
2023-04-15T02:40:12.060Z,62.06
2023-04-15T02:42:41.137Z,61.89
2023-04-15T02:45:12.888Z,62.08
2023-04-15T02:47:43.068Z,61.75
2023-04-15T02:50:13.342Z,61.68
2023-04-15T02:52:43.475Z,61.92
2023-04-15T02:55:12.539Z,61.95
2023-04-15T02:57:41.175Z,61.97
2023-04-15T03:00:12.018Z,61.87
2023-04-15T03:02:44.677Z,61.79
2023-04-15T03:05:14.309Z,62.02
2023-04-15T03:07:48.808Z,62.08
2023-04-15T03:10:17.023Z,62.06
2023-04-15T03:12:45.505Z,62.01
2023-04-15T03:15:18.217Z,62.08
2023-04-15T03:17:50.049Z,62.10
2023-04-15T03:20:18.752Z,62.11
2023-04-15T03:22:46.920Z,61.95
2023-04-15T03:25:15.183Z,61.96
2023-04-15T03:27:44.383Z,62.00
2023-04-15T03:30:14.111Z,61.95
2023-04-15T03:32:42.904Z,62.00
2023-04-15T03:35:11.150Z,62.16
2023-04-15T03:37:39.444Z,62.26
2023-04-15T03:40:08.699Z,62.05
2023-04-15T03:42:36.904Z,62.34
2023-04-15T03:45:05.871Z,62.10
2023-04-15T03:47:34.054Z,62.27
2023-04-15T03:50:02.260Z,62.55
2023-04-15T03:52:30.431Z,62.31
2023-04-15T03:54:58.582Z,62.01
2023-04-15T03:57:26.705Z,62.12
2023-04-15T03:59:54.864Z,62.23
2023-04-15T04:02:23.259Z,62.30
2023-04-15T04:04:51.793Z,62.43
2023-04-15T04:07:20.197Z,62.23
2023-04-15T04:09:48.345Z,62.20
2023-04-15T04:12:16.556Z,62.44
2023-04-15T04:14:44.796Z,62.19
2023-04-15T04:17:13.005Z,62.25
2023-04-15T04:19:41.345Z,62.28
2023-04-15T04:22:09.702Z,62.42
2023-04-15T04:24:37.853Z,62.46
2023-04-15T04:27:06.213Z,62.36
2023-04-15T04:29:34.385Z,62.27
2023-04-15T04:32:02.593Z,62.47
2023-04-15T04:34:31.059Z,62.20
2023-04-15T04:36:59.278Z,62.56
2023-04-15T04:39:27.459Z,62.63
2023-04-15T04:41:55.912Z,62.48
2023-04-15T04:44:24.110Z,62.69
2023-04-15T04:46:52.282Z,62.60
2023-04-15T04:49:20.430Z,62.78
2023-04-15T04:51:48.878Z,62.79
2023-04-15T04:54:17.584Z,62.57
2023-04-15T04:56:46.270Z,62.72
2023-04-15T04:59:14.672Z,62.73
2023-04-15T05:01:42.987Z,62.82
2023-04-15T05:04:11.319Z,62.64
2023-04-15T05:06:39.641Z,62.59
2023-04-15T05:09:08.030Z,62.79
2023-04-15T05:11:36.418Z,62.84
2023-04-15T05:14:04.576Z,62.81
2023-04-15T05:16:32.753Z,62.78
2023-04-15T05:19:01.052Z,62.85
2023-04-15T05:21:29.350Z,62.90
2023-04-15T05:23:57.546Z,62.85
2023-04-15T05:26:27.396Z,62.77
2023-04-15T05:28:55.574Z,62.70
2023-04-15T05:31:23.782Z,62.98
2023-04-15T05:33:51.950Z,63.04
2023-04-15T05:36:20.079Z,63.45
2023-04-15T05:38:48.203Z,63.01
2023-04-15T05:41:18.480Z,63.29
2023-04-15T05:43:48.010Z,63.35
2023-04-15T05:46:16.315Z,63.29
2023-04-15T05:48:44.474Z,63.18
2023-04-15T05:51:12.685Z,63.22
2023-04-15T05:53:41.651Z,63.26
2023-04-15T05:56:09.814Z,63.33
2023-04-15T05:58:38.205Z,63.24
2023-04-15T06:01:06.415Z,63.61
2023-04-15T06:03:34.654Z,63.33
2023-04-15T06:06:03.584Z,63.40
2023-04-15T06:08:31.726Z,63.46
2023-04-15T06:11:00.020Z,63.70
2023-04-15T06:13:29.001Z,63.52
2023-04-15T06:15:57.176Z,63.66
2023-04-15T06:18:25.704Z,63.63
2023-04-15T06:20:53.855Z,63.85
2023-04-15T06:23:22.112Z,63.83
2023-04-15T06:25:50.331Z,63.85
2023-04-15T06:28:18.479Z,63.87
2023-04-15T06:30:46.649Z,63.72
2023-04-15T06:33:15.324Z,64.01
2023-04-15T06:35:43.501Z,64.15
2023-04-15T06:38:11.879Z,64.11
2023-04-15T06:40:40.437Z,64.16
2023-04-15T06:43:09.129Z,64.13
2023-04-15T06:45:37.354Z,64.06
2023-04-15T06:48:05.823Z,64.20
2023-04-15T06:50:35.597Z,64.36
2023-04-15T06:53:03.868Z,64.46
2023-04-15T06:55:32.285Z,64.38
2023-04-15T06:58:00.621Z,64.66
2023-04-15T07:00:28.877Z,64.83
2023-04-15T07:02:57.068Z,64.78
2023-04-15T07:05:25.388Z,64.68
2023-04-15T07:07:53.537Z,65.09
2023-04-15T07:10:22.026Z,65.14
2023-04-15T07:12:51.443Z,65.25
2023-04-15T07:15:19.940Z,65.36
2023-04-15T07:17:48.248Z,65.48
2023-04-15T07:20:16.525Z,65.45
2023-04-15T07:22:44.922Z,65.98
2023-04-15T07:25:13.094Z,65.98
2023-04-15T07:27:41.616Z,65.98
2023-04-15T07:30:10.589Z,66.09
2023-04-15T07:32:38.857Z,66.26
2023-04-15T07:35:07.786Z,66.49
2023-04-15T07:37:36.171Z,66.50
2023-04-15T07:40:06.682Z,66.50
2023-04-15T07:42:35.291Z,66.25
2023-04-15T07:45:03.752Z,66.42
2023-04-15T07:47:31.935Z,66.63
2023-04-15T07:50:00.155Z,66.84
2023-04-15T07:52:28.567Z,66.52
2023-04-15T07:54:56.722Z,66.56
2023-04-15T07:57:24.916Z,66.77
2023-04-15T07:59:53.056Z,67.07
2023-04-15T08:02:21.792Z,67.30
2023-04-15T08:04:50.247Z,67.43
2023-04-15T08:07:18.618Z,67.18
2023-04-15T08:09:46.941Z,67.74
2023-04-15T08:12:15.885Z,68.03
2023-04-15T08:14:44.086Z,68.05
2023-04-15T08:17:12.237Z,68.35
2023-04-15T08:19:40.856Z,68.41
2023-04-15T08:22:10.906Z,68.27
2023-04-15T08:24:46.784Z,68.40
2023-04-15T08:27:14.946Z,68.60
2023-04-15T08:29:43.213Z,68.39
2023-04-15T08:32:11.473Z,68.28
2023-04-15T08:34:39.723Z,68.49
2023-04-15T08:37:08.157Z,68.62
2023-04-15T08:39:36.365Z,68.54
2023-04-15T08:42:11.829Z,68.79
2023-04-15T08:44:40.264Z,68.57
2023-04-15T08:47:09.359Z,68.84
2023-04-15T08:49:41.706Z,68.44
2023-04-15T08:52:10.208Z,68.38
2023-04-15T08:54:38.746Z,68.87
2023-04-15T08:57:07.891Z,69.28
2023-04-15T08:59:36.337Z,68.79
2023-04-15T09:02:05.889Z,69.04
2023-04-15T09:04:34.358Z,69.18
2023-04-15T09:07:02.570Z,69.31
2023-04-15T09:09:31.223Z,69.20
2023-04-15T09:12:01.412Z,69.52
2023-04-15T09:14:32.134Z,69.57
2023-04-15T09:17:04.944Z,68.74
2023-04-15T09:19:35.868Z,68.37
2023-04-15T09:22:04.515Z,68.55
2023-04-15T09:24:43.281Z,68.49
2023-04-15T09:27:11.540Z,68.73
2023-04-15T09:29:42.445Z,69.01
2023-04-15T09:32:14.577Z,69.26
2023-04-15T09:34:43.575Z,68.70
2023-04-15T09:37:20.710Z,68.22
2023-04-15T09:39:59.692Z,68.12
2023-04-15T09:42:28.605Z,68.13
2023-04-15T09:45:07.712Z,68.07
2023-04-15T09:47:36.086Z,67.46
2023-04-15T09:50:04.798Z,67.89
2023-04-15T09:52:33.403Z,67.74
2023-04-15T09:55:01.568Z,68.26
2023-04-15T09:57:36.508Z,68.01
2023-04-15T10:00:11.155Z,68.35
2023-04-15T10:02:42.461Z,68.84
2023-04-15T10:05:13.752Z,68.63
2023-04-15T10:07:42.882Z,68.26
2023-04-15T10:10:11.684Z,67.27
2023-04-15T10:12:42.121Z,67.50
2023-04-15T10:15:17.370Z,67.34
2023-04-15T10:17:47.913Z,67.51
2023-04-15T10:20:19.386Z,67.40
2023-04-15T10:22:48.507Z,68.07
2023-04-15T10:25:16.764Z,68.22
2023-04-15T10:27:48.417Z,68.35
2023-04-15T10:30:17.462Z,68.49
2023-04-15T10:32:46.664Z,67.24
2023-04-15T10:35:15.843Z,67.89
2023-04-15T10:37:44.081Z,68.09
2023-04-15T10:40:31.634Z,68.56
2023-04-15T10:43:02.225Z,68.30
2023-04-15T10:45:36.695Z,68.04
2023-04-15T10:48:08.946Z,67.62
2023-04-15T10:50:37.971Z,67.55
2023-04-15T10:53:06.280Z,67.78
2023-04-15T10:55:37.298Z,66.14
2023-04-15T10:58:05.877Z,65.66
2023-04-15T11:00:37.609Z,65.87
2023-04-15T11:03:10.849Z,65.26
2023-04-15T11:05:42.099Z,65.01
2023-04-15T11:08:11.999Z,63.83
2023-04-15T11:10:40.243Z,64.10
2023-04-15T11:13:25.025Z,65.44
2023-04-15T11:15:58.414Z,66.02
2023-04-15T11:18:30.554Z,65.41
2023-04-15T11:21:05.380Z,65.90
2023-04-15T11:23:50.935Z,66.48
2023-04-15T11:26:19.157Z,64.97
2023-04-15T11:28:47.456Z,64.14
2023-04-15T11:31:18.197Z,63.30
2023-04-15T11:34:02.123Z,63.36
2023-04-15T11:36:34.517Z,62.74
2023-04-15T11:39:02.792Z,61.53
2023-04-15T11:41:31.103Z,61.03
2023-04-15T11:43:59.319Z,62.64
2023-04-15T11:46:34.040Z,62.78
2023-04-15T11:49:02.247Z,62.66
2023-04-15T11:51:34.436Z,61.76
2023-04-15T11:54:01.721Z,60.78
2023-04-15T11:56:28.823Z,60.46
2023-04-15T11:58:59.356Z,61.48
2023-04-15T12:01:39.211Z,62.99
2023-04-15T12:04:20.159Z,62.50
2023-04-15T12:06:49.347Z,61.45
2023-04-15T12:09:17.226Z,62.32
2023-04-15T12:11:52.763Z,62.04
2023-04-15T12:14:31.962Z,62.71
2023-04-15T12:17:04.809Z,62.34
2023-04-15T12:19:42.831Z,63.52
2023-04-15T12:22:15.773Z,63.17
2023-04-15T12:24:47.474Z,61.54
2023-04-15T12:27:16.801Z,61.68
2023-04-15T12:29:43.887Z,61.74
2023-04-15T12:32:21.066Z,62.86
2023-04-15T12:34:54.200Z,61.63
2023-04-15T12:37:21.689Z,60.71
2023-04-15T12:39:50.350Z,61.32
2023-04-15T12:42:18.400Z,60.81
2023-04-15T12:44:46.222Z,60.54
2023-04-15T12:47:13.653Z,60.79
2023-04-15T12:49:40.924Z,60.68
2023-04-15T12:52:08.226Z,60.51
2023-04-15T12:54:36.421Z,61.25
2023-04-15T12:57:06.813Z,61.43
2023-04-15T12:59:35.098Z,60.86
2023-04-15T13:02:03.090Z,61.30
2023-04-15T13:04:31.050Z,60.73
2023-04-15T13:06:58.525Z,60.56
2023-04-15T13:09:25.752Z,61.28
2023-04-15T13:11:53.023Z,61.50
2023-04-15T13:14:20.397Z,61.31
2023-04-15T13:16:47.477Z,60.79
2023-04-15T13:19:14.791Z,60.49
2023-04-15T13:21:41.732Z,61.04
2023-04-15T13:24:09.645Z,61.42
2023-04-15T13:26:36.691Z,60.48
2023-04-15T13:29:04.517Z,60.27
2023-04-15T13:31:31.609Z,60.28
2023-04-15T13:33:58.584Z,59.97
2023-04-15T13:36:26.372Z,60.23
2023-04-15T13:38:53.426Z,59.51
2023-04-15T13:41:21.112Z,59.72
2023-04-15T13:43:48.078Z,59.63
2023-04-15T13:46:15.157Z,59.24
2023-04-15T13:48:42.460Z,59.44
2023-04-15T13:51:09.409Z,59.08
2023-04-15T13:53:39.137Z,59.64
2023-04-15T13:56:08.178Z,59.07
2023-04-15T13:58:36.702Z,58.52
2023-04-15T14:01:05.660Z,58.27
2023-04-15T14:03:35.204Z,59.64
2023-04-15T14:06:02.374Z,59.52
2023-04-15T14:08:31.014Z,59.40
2023-04-15T14:10:58.102Z,58.85
2023-04-15T14:13:25.298Z,59.52
2023-04-15T14:15:52.339Z,58.86
2023-04-15T14:18:19.332Z,59.57
2023-04-15T14:20:46.459Z,59.25
2023-04-15T14:23:13.400Z,60.01
2023-04-15T14:25:40.447Z,59.39
2023-04-15T14:28:07.400Z,59.66
2023-04-15T14:30:34.418Z,59.36
2023-04-15T14:33:01.485Z,59.43
2023-04-15T14:35:28.668Z,59.04
2023-04-15T14:37:56.001Z,59.06
2023-04-15T14:40:23.099Z,59.31
2023-04-15T14:42:50.080Z,58.62
2023-04-15T14:45:17.660Z,59.38
2023-04-15T14:47:45.041Z,59.52
2023-04-15T14:50:12.625Z,58.92
2023-04-15T14:52:39.829Z,59.65
2023-04-15T14:55:10.302Z,59.34
2023-04-15T14:57:42.019Z,60.02
2023-04-15T15:00:12.210Z,59.31
2023-04-15T15:02:42.131Z,59.64
2023-04-15T15:05:11.743Z,59.90
2023-04-15T15:07:40.891Z,60.12
2023-04-15T15:10:08.371Z,59.38
2023-04-15T15:12:35.376Z,60.01
2023-04-15T15:15:12.237Z,59.84
2023-04-15T15:17:46.942Z,59.90
2023-04-15T15:20:13.991Z,59.95
2023-04-15T15:22:40.896Z,60.36
2023-04-15T15:25:07.936Z,60.73
2023-04-15T15:27:37.077Z,60.26
2023-04-15T15:30:06.689Z,60.74
2023-04-15T15:32:33.721Z,60.80
2023-04-15T15:35:00.931Z,61.10
2023-04-15T15:37:30.093Z,61.41
2023-04-15T15:39:57.283Z,61.27
2023-04-15T15:42:24.764Z,61.38
2023-04-15T15:44:52.791Z,61.53
2023-04-15T15:47:21.936Z,61.77
2023-04-15T15:49:49.024Z,61.69
2023-04-15T15:52:16.135Z,61.99
2023-04-15T15:54:43.160Z,61.78
2023-04-15T15:57:10.816Z,61.82
2023-04-15T15:59:43.940Z,61.57
2023-04-15T16:02:12.633Z,61.78
2023-04-15T16:04:40.426Z,62.78
2023-04-15T16:07:07.524Z,62.79
2023-04-15T16:09:34.580Z,62.77
2023-04-15T16:12:02.449Z,62.99
2023-04-15T16:14:29.444Z,62.45
2023-04-15T16:16:56.799Z,62.67
2023-04-15T16:19:23.921Z,62.97
2023-04-15T16:21:51.387Z,63.68
2023-04-15T16:24:18.391Z,63.36
2023-04-15T16:26:45.510Z,64.52
2023-04-15T16:29:12.711Z,64.31
2023-04-15T16:31:41.302Z,64.09
2023-04-15T16:34:08.431Z,64.09
2023-04-15T16:36:35.992Z,64.66
2023-04-15T16:39:03.484Z,64.18
2023-04-15T16:41:32.561Z,64.79
2023-04-15T16:44:03.124Z,64.56
2023-04-15T16:46:30.811Z,63.79
2023-04-15T16:48:58.002Z,64.54
2023-04-15T16:51:24.966Z,64.55
2023-04-15T16:53:51.929Z,64.43
2023-04-15T16:56:19.394Z,64.49
2023-04-15T16:58:46.382Z,64.62
2023-04-15T17:01:13.501Z,64.13
2023-04-15T17:03:40.527Z,64.28
2023-04-15T17:06:07.604Z,64.18
2023-04-15T17:08:34.562Z,64.98
2023-04-15T17:11:01.576Z,64.83
2023-04-15T17:13:28.515Z,64.53
2023-04-15T17:15:55.978Z,64.59
2023-04-15T17:18:28.752Z,64.33
2023-04-15T17:21:07.508Z,64.28
2023-04-15T17:23:36.164Z,65.40
2023-04-15T17:26:03.368Z,66.38
2023-04-15T17:28:30.652Z,65.68
2023-04-15T17:30:59.699Z,66.41
2023-04-15T17:33:58.060Z,65.51
2023-04-15T17:36:53.493Z,65.06
2023-04-15T17:39:40.429Z,65.35
2023-04-15T17:42:27.353Z,65.61
2023-04-15T17:45:14.426Z,65.85
2023-04-15T17:48:03.439Z,65.82
2023-04-15T17:50:51.887Z,65.15
2023-04-15T17:53:39.152Z,65.92
2023-04-15T17:56:27.479Z,65.90
2023-04-15T17:59:16.560Z,65.42
2023-04-15T18:02:03.607Z,65.00
2023-04-15T18:04:50.761Z,65.45
2023-04-15T18:07:37.869Z,65.28
2023-04-15T18:10:24.857Z,65.60
2023-04-15T18:13:11.713Z,65.86
2023-04-15T18:15:58.652Z,66.77
2023-04-15T18:18:45.606Z,66.92
2023-04-15T18:21:13.830Z,65.79
2023-04-15T18:23:41.001Z,66.07
2023-04-15T18:26:08.021Z,66.46
2023-04-15T18:28:35.321Z,65.94
2023-04-15T18:31:03.381Z,65.92
2023-04-15T18:33:30.510Z,65.66
2023-04-15T18:35:57.603Z,66.24
2023-04-15T18:38:24.571Z,66.04
2023-04-15T18:40:51.742Z,65.48
2023-04-15T18:43:18.750Z,65.38
2023-04-15T18:45:45.820Z,66.00
2023-04-15T18:48:14.208Z,65.43
2023-04-15T18:50:41.529Z,65.36
2023-04-15T18:53:08.456Z,65.47
2023-04-15T18:55:35.766Z,65.57
2023-04-15T18:58:08.433Z,65.48
2023-04-15T19:00:40.279Z,65.73
2023-04-15T19:03:07.951Z,65.70
2023-04-15T19:05:36.199Z,65.72
2023-04-15T19:08:03.161Z,65.72
2023-04-15T19:10:30.202Z,65.69
2023-04-15T19:12:57.146Z,65.88
2023-04-15T19:15:24.075Z,66.25
2023-04-15T19:17:51.026Z,66.09
2023-04-15T19:20:18.143Z,66.05
2023-04-15T19:22:45.382Z,66.37
2023-04-15T19:25:12.456Z,65.95
2023-04-15T19:27:39.425Z,66.29
2023-04-15T19:30:08.107Z,66.25
2023-04-15T19:32:35.888Z,65.93
2023-04-15T19:35:03.075Z,66.14
2023-04-15T19:37:30.264Z,66.10
2023-04-15T19:39:57.181Z,66.30
2023-04-15T19:42:24.113Z,66.20
2023-04-15T19:44:51.073Z,66.05
2023-04-15T19:47:18.094Z,66.50
2023-04-15T19:49:45.131Z,66.57
2023-04-15T19:52:12.233Z,66.29
2023-04-15T19:54:39.190Z,66.22
2023-04-15T19:57:06.446Z,65.97
2023-04-15T19:59:33.555Z,66.44
2023-04-15T20:02:00.715Z,66.30
2023-04-15T20:04:27.911Z,65.98
2023-04-15T20:06:55.637Z,65.93
2023-04-15T20:09:22.593Z,66.65
2023-04-15T20:12:44.908Z,66.94
2023-04-15T20:14:36.859Z,66.65
2023-04-15T20:17:03.771Z,66.46
2023-04-15T20:19:30.829Z,66.21
2023-04-15T20:21:57.959Z,66.69
2023-04-15T20:24:25.190Z,67.04
2023-04-15T20:26:52.410Z,67.30
2023-04-15T20:29:19.412Z,66.63
2023-04-15T20:31:46.574Z,66.73
2023-04-15T20:34:13.658Z,66.57
2023-04-15T20:36:40.594Z,66.78
2023-04-15T20:39:07.796Z,66.78
2023-04-15T20:41:34.909Z,66.63
2023-04-15T20:44:01.876Z,66.78
2023-04-15T20:46:28.842Z,66.33
2023-04-15T20:48:56.030Z,67.11
2023-04-15T20:51:22.998Z,66.75
2023-04-15T20:53:49.922Z,67.15
2023-04-15T20:56:16.858Z,66.95
2023-04-15T20:58:43.796Z,66.91
2023-04-15T21:01:10.864Z,67.03
2023-04-15T21:03:38.068Z,67.12
2023-04-15T21:06:05.008Z,67.13
2023-04-15T21:08:32.199Z,66.78
2023-04-15T21:10:59.125Z,67.22
2023-04-15T21:13:26.135Z,66.77
2023-04-15T21:15:54.206Z,67.08
2023-04-15T21:18:22.278Z,66.67
2023-04-15T21:21:04.425Z,65.88
2023-04-15T21:23:38.377Z,66.76
2023-04-15T21:26:06.774Z,66.77
2023-04-15T21:28:35.720Z,66.85
2023-04-15T21:31:04.587Z,67.04
2023-04-15T21:33:31.777Z,67.18
2023-04-15T21:35:58.717Z,67.17
2023-04-15T21:38:25.734Z,67.10
2023-04-15T21:40:52.780Z,66.87
2023-04-15T21:43:21.501Z,67.00
2023-04-15T21:46:21.213Z,67.23
2023-04-15T21:48:35.394Z,67.41
2023-04-15T21:51:02.357Z,67.44
2023-04-15T21:53:29.308Z,66.81
2023-04-15T21:55:56.273Z,66.84
2023-04-15T21:58:23.264Z,66.95
2023-04-15T22:00:51.281Z,66.87
2023-04-15T22:03:18.481Z,67.10
2023-04-15T22:05:46.050Z,67.16
2023-04-15T22:08:13.035Z,67.10
2023-04-15T22:10:40.380Z,66.92
2023-04-15T22:13:10.856Z,67.46
2023-04-15T22:15:38.321Z,67.31
2023-04-15T22:18:05.903Z,67.22
2023-04-15T22:20:32.964Z,66.94
2023-04-15T22:23:00.128Z,67.50
2023-04-15T22:25:27.113Z,67.27
2023-04-15T22:27:54.032Z,67.14
2023-04-15T22:30:21.078Z,67.59
2023-04-15T22:32:47.998Z,67.51
2023-04-15T22:35:15.023Z,67.54
2023-04-15T22:37:42.006Z,67.27
2023-04-15T22:40:09.696Z,67.21
2023-04-15T22:42:36.699Z,67.36
2023-04-15T22:45:03.937Z,67.26
2023-04-15T22:47:31.038Z,67.58
2023-04-15T22:49:58.069Z,67.17
2023-04-15T22:52:30.408Z,67.86
2023-04-15T22:54:58.620Z,67.48
2023-04-15T22:57:25.766Z,67.76
2023-04-15T22:59:52.669Z,67.31
2023-04-15T23:02:19.945Z,68.22
2023-04-15T23:04:47.162Z,68.09
2023-04-15T23:07:14.168Z,67.74
2023-04-15T23:09:41.111Z,67.94
2023-04-15T23:12:08.093Z,68.70
2023-04-15T23:14:35.014Z,68.61
2023-04-15T23:17:02.013Z,68.25
2023-04-15T23:19:29.013Z,67.96
2023-04-15T23:21:55.974Z,68.79
2023-04-15T23:24:22.942Z,68.37
2023-04-15T23:26:49.879Z,68.72
2023-04-15T23:29:16.801Z,68.60
2023-04-15T23:31:43.805Z,68.36
2023-04-15T23:34:10.777Z,68.76
2023-04-15T23:36:37.780Z,68.99
2023-04-15T23:39:04.712Z,68.27
2023-04-15T23:41:31.668Z,68.71
2023-04-15T23:43:58.642Z,68.53
2023-04-15T23:46:25.709Z,68.94
2023-04-15T23:48:52.738Z,68.64
2023-04-15T23:51:19.652Z,69.29
2023-04-15T23:53:46.706Z,69.13
2023-04-15T23:56:13.611Z,69.13
2023-04-15T23:58:40.672Z,68.89
